Time;durP1;ratioP1;P1;durP2;ratioP2;P2;SDS_P1;SDS_P2;PMS_P1;PMS_P2;Temp;Humidity;BMP_temperature;BMP_pressure;BME280_temperature;BME280_humidity;BME280_pressure;Samples;Min_cycle;Max_cycle;Signal;HPM_P1;HPM_P2
2023/02/15 00:01:30;;;;;;;97.05;28.25;;;3.30;99.90;;;;;;5033942;28;20181;-83
2023/02/15 00:03:56;;;;;;;103.60;29.13;;;3.30;99.90;;;;;;5017527;28;20174;-83
2023/02/15 00:06:22;;;;;;;103.90;32.22;;;3.30;99.90;;;;;;5016075;28;20253;-83
2023/02/15 00:08:48;;;;;;;99.03;28.67;;;3.30;99.90;;;;;;5032725;28;20173;-83
2023/02/15 00:11:16;;;;;;;105.07;28.07;;;3.30;99.90;;;;;;5032699;28;20456;-83
2023/02/15 00:13:42;;;;;;;99.43;27.63;;;3.30;99.90;;;;;;5032871;28;20459;-84
2023/02/15 00:16:12;;;;;;;99.55;26.88;;;3.30;99.90;;;;;;5032635;28;20172;-83
2023/02/15 00:18:44;;;;;;;94.78;26.73;;;3.30;99.90;;;;;;5015299;28;20158;-83
2023/02/15 00:21:13;;;;;;;104.07;32.75;;;3.20;99.90;;;;;;5031374;28;20193;-83
2023/02/15 00:23:39;;;;;;;100.97;29.23;;;3.20;99.90;;;;;;5032870;28;20258;-83
2023/02/15 00:26:10;;;;;;;99.17;31.07;;;3.10;99.90;;;;;;5032632;28;20193;-83
2023/02/15 00:28:36;;;;;;;100.45;29.85;;;3.10;99.90;;;;;;5032887;28;20166;-84
2023/02/15 00:31:07;;;;;;;106.53;31.50;;;3.00;99.90;;;;;;5014474;28;20201;-83
2023/02/15 00:33:33;;;;;;;103.40;28.90;;;3.00;99.90;;;;;;5032833;28;20139;-83
2023/02/15 00:36:00;;;;;;;103.70;29.05;;;3.00;99.90;;;;;;5014875;28;20225;-83
2023/02/15 00:38:28;;;;;;;99.80;27.45;;;3.00;99.90;;;;;;5033283;28;20230;-84
2023/02/15 00:40:54;;;;;;;100.15;29.45;;;3.00;99.90;;;;;;5031653;28;20227;-84
2023/02/15 00:43:23;;;;;;;99.70;28.23;;;3.00;99.90;;;;;;5032922;28;20178;-83
2023/02/15 00:45:49;;;;;;;102.72;31.52;;;3.00;99.90;;;;;;5032444;28;20705;-83
2023/02/15 00:48:15;;;;;;;103.93;30.50;;;3.00;99.90;;;;;;5031529;28;20185;-83
2023/02/15 00:50:41;;;;;;;103.60;28.20;;;3.00;99.90;;;;;;5014961;28;20257;-83
2023/02/15 00:53:06;;;;;;;111.17;31.80;;;2.90;99.90;;;;;;5014602;28;20456;-83
2023/02/15 00:55:33;;;;;;;102.27;30.37;;;2.90;99.90;;;;;;5032425;28;20401;-83
2023/02/15 00:57:58;;;;;;;102.30;31.42;;;2.90;99.90;;;;;;5032731;28;20389;-83
2023/02/15 01:00:24;;;;;;;105.00;31.23;;;3.00;99.90;;;;;;5032469;28;20166;-83
2023/02/15 01:02:50;;;;;;;95.87;29.90;;;2.90;99.90;;;;;;5014104;28;20196;-84
2023/02/15 01:05:16;;;;;;;96.30;26.77;;;2.90;99.90;;;;;;5032013;28;20405;-83
2023/02/15 01:07:41;;;;;;;99.23;28.30;;;2.80;99.90;;;;;;5031151;28;20170;-84
2023/02/15 01:10:08;;;;;;;101.57;30.00;;;2.80;99.90;;;;;;5014367;28;20612;-84
2023/02/15 01:12:34;;;;;;;106.88;29.10;;;2.70;99.90;;;;;;5031973;28;20463;-83
2023/02/15 01:15:00;;;;;;;100.00;28.38;;;2.70;99.90;;;;;;5031904;28;20169;-84
2023/02/15 01:17:25;;;;;;;101.97;28.67;;;2.60;99.90;;;;;;5031906;28;20193;-83
2023/02/15 01:19:51;;;;;;;107.03;27.90;;;2.60;99.90;;;;;;5013212;28;20405;-83
2023/02/15 01:22:18;;;;;;;100.03;27.27;;;2.70;99.90;;;;;;5031878;28;20186;-83
2023/02/15 01:24:47;;;;;;;102.18;28.35;;;2.60;99.90;;;;;;5014160;28;20170;-84
2023/02/15 01:27:13;;;;;;;100.55;28.27;;;2.70;99.90;;;;;;5014830;28;20565;-84
2023/02/15 01:29:38;;;;;;;99.80;26.20;;;2.70;99.90;;;;;;5014413;28;20181;-83
2023/02/15 01:32:04;;;;;;;100.50;28.67;;;2.60;99.90;;;;;;5031880;28;20520;-84
2023/02/15 01:34:30;;;;;;;105.83;27.37;;;2.60;99.90;;;;;;5033173;28;20436;-83
2023/02/15 01:36:56;;;;;;;100.13;25.90;;;2.60;99.90;;;;;;5014328;28;20166;-84
2023/02/15 01:39:22;;;;;;;103.07;29.17;;;2.60;99.90;;;;;;5031693;28;20916;-84
2023/02/15 01:41:47;;;;;;;107.80;28.27;;;2.60;99.90;;;;;;5013867;28;20213;-83
2023/02/15 01:44:44;;;;;;;104.20;28.90;;;2.60;99.90;;;;;;5030062;28;20796;-84
2023/02/15 01:47:15;;;;;;;99.57;25.88;;;2.60;99.90;;;;;;5029946;28;20249;-83
2023/02/15 01:49:43;;;;;;;101.35;26.48;;;2.60;99.90;;;;;;5031516;28;20161;-84
2023/02/15 01:52:13;;;;;;;102.22;27.55;;;2.60;99.90;;;;;;5030122;28;20216;-84
2023/02/15 01:54:41;;;;;;;99.57;32.33;;;2.60;99.90;;;;;;5030507;28;20166;-84
2023/02/15 01:57:11;;;;;;;98.80;28.85;;;2.60;99.90;;;;;;5013465;28;20253;-83
2023/02/15 01:59:39;;;;;;;98.88;29.02;;;2.60;99.90;;;;;;5014352;28;20162;-84
2023/02/15 02:02:08;;;;;;;104.30;26.85;;;2.60;99.90;;;;;;5013890;28;20208;-84
2023/02/15 02:04:47;;;;;;;104.10;29.40;;;2.60;99.90;;;;;;5013391;28;20205;-84
2023/02/15 02:07:16;;;;;;;100.53;24.65;;;2.60;99.90;;;;;;5014153;28;20166;-83
2023/02/15 02:09:42;;;;;;;105.40;26.55;;;2.60;99.90;;;;;;5013484;28;20170;-84
2023/02/15 02:12:08;;;;;;;109.55;31.50;;;2.50;99.90;;;;;;5030882;28;20214;-83
2023/02/15 02:14:35;;;;;;;100.30;25.00;;;2.60;99.90;;;;;;5030389;28;20158;-83
2023/02/15 02:17:10;;;;;;;102.18;24.73;;;2.50;99.90;;;;;;5013478;28;20238;-84
2023/02/15 02:20:13;;;;;;;101.97;25.95;;;2.50;99.90;;;;;;5030611;28;20192;-83
2023/02/15 02:22:39;;;;;;;99.65;31.38;;;2.40;99.90;;;;;;5031580;28;20188;-83
2023/02/15 02:25:23;;;;;;;98.33;24.67;;;2.40;99.90;;;;;;5031106;28;20166;-84
2023/02/15 02:28:18;;;;;;;102.57;25.45;;;2.40;99.90;;;;;;5013915;28;20200;-84
2023/02/15 02:31:02;;;;;;;109.07;26.38;;;2.40;99.90;;;;;;4978122;28;20235;-83
2023/02/15 02:33:54;;;;;;;103.25;26.23;;;2.40;99.90;;;;;;5030755;28;20162;-84
2023/02/15 02:36:28;;;;;;;98.38;26.35;;;2.30;99.90;;;;;;5031159;28;20181;-84
2023/02/15 02:39:09;;;;;;;96.22;23.67;;;2.30;99.90;;;;;;5031423;28;20212;-84
2023/02/15 02:41:53;;;;;;;95.20;25.38;;;2.30;99.90;;;;;;5030358;28;20189;-84
2023/02/15 02:44:46;;;;;;;104.30;25.35;;;2.30;99.90;;;;;;5031071;28;20158;-84
2023/02/15 02:47:38;;;;;;;101.35;25.75;;;2.30;99.90;;;;;;5029933;28;20224;-83
2023/02/15 02:50:12;;;;;;;100.88;24.35;;;2.30;99.90;;;;;;5010974;28;20184;-84
2023/02/15 02:52:49;;;;;;;99.80;25.40;;;2.30;99.90;;;;;;5030581;28;20272;-84
2023/02/15 02:55:31;;;;;;;105.05;26.48;;;2.30;99.90;;;;;;5030680;28;20149;-84
2023/02/15 02:58:05;;;;;;;96.75;24.25;;;2.30;99.90;;;;;;5031039;28;20216;-84
2023/02/15 03:00:47;;;;;;;105.63;26.75;;;2.30;99.90;;;;;;5030072;28;20154;-84
2023/02/15 03:03:23;;;;;;;104.78;25.77;;;2.20;99.90;;;;;;5030501;28;20162;-84
2023/02/15 03:05:52;;;;;;;109.85;26.58;;;2.20;99.90;;;;;;5031727;28;20176;-84
2023/02/15 03:08:21;;;;;;;103.00;30.02;;;2.20;99.90;;;;;;5030097;28;20200;-84
2023/02/15 03:10:51;;;;;;;95.85;26.95;;;2.10;99.90;;;;;;5030029;28;20205;-84
2023/02/15 03:13:17;;;;;;;97.40;23.52;;;2.20;99.90;;;;;;5029917;28;20165;-84
2023/02/15 03:18:36;;;;;;;100.90;26.75;;;2.10;99.90;;;;;;5030566;28;20181;-84
2023/02/15 03:21:04;;;;;;;103.05;28.75;;;2.10;99.90;;;;;;5030568;28;20177;-84
2023/02/15 03:23:32;;;;;;;101.53;29.17;;;2.10;99.90;;;;;;5030379;28;20221;-84
2023/02/15 03:26:01;;;;;;;99.60;27.52;;;2.10;99.90;;;;;;5017400;28;20170;-85
2023/02/15 03:28:48;;;;;;;97.68;26.17;;;2.10;99.90;;;;;;5033754;28;20229;-84
2023/02/15 03:31:16;;;;;;;107.97;28.33;;;2.10;99.90;;;;;;5017499;28;20269;-84
2023/02/15 03:33:54;;;;;;;104.75;32.03;;;2.00;99.90;;;;;;5033723;28;20542;-84
2023/02/15 03:36:26;;;;;;;98.95;25.60;;;2.00;99.90;;;;;;5017584;28;20212;-84
2023/02/15 03:39:02;;;;;;;104.47;27.90;;;2.00;99.90;;;;;;5034494;28;20170;-84
2023/02/15 03:41:49;;;;;;;101.97;26.98;;;2.00;99.90;;;;;;5033555;28;20200;-84
2023/02/15 03:44:30;;;;;;;99.55;25.40;;;2.00;99.90;;;;;;5033620;28;20166;-84
2023/02/15 03:47:12;;;;;;;103.22;27.23;;;1.90;99.90;;;;;;5094429;22;20232;-84
2023/02/15 03:49:52;;;;;;;97.72;24.25;;;1.90;99.90;;;;;;5022072;28;20180;-84
2023/02/15 03:52:19;;;;;;;101.28;26.02;;;1.90;99.90;;;;;;5021847;28;20233;-84
2023/02/15 03:54:48;;;;;;;104.10;28.00;;;1.90;99.90;;;;;;5022088;28;20158;-84
2023/02/15 04:03:21;;;;;;;102.50;25.02;;;2.00;99.90;;;;;;5023604;28;20200;-84
2023/02/15 04:05:47;;;;;;;96.93;24.48;;;1.90;99.90;;;;;;5022294;28;20233;-84
2023/02/15 04:08:13;;;;;;;102.17;24.87;;;1.90;99.90;;;;;;5022482;28;20635;-84
2023/02/15 04:10:55;;;;;;;104.67;25.50;;;1.90;99.90;;;;;;5021697;28;20173;-84
2023/02/15 04:13:30;;;;;;;104.22;27.45;;;1.90;99.90;;;;;;5021091;28;20193;-84
2023/02/15 04:16:02;;;;;;;98.45;24.88;;;1.90;99.90;;;;;;5004237;28;20585;-84
2023/02/15 04:26:58;;;;;;;99.03;23.83;;;1.90;99.90;;;;;;5021673;28;20204;-84
2023/02/15 04:29:25;;;;;;;103.45;26.67;;;1.90;99.90;;;;;;5021160;28;20166;-84
2023/02/15 04:31:52;;;;;;;97.30;23.45;;;1.90;99.90;;;;;;5003945;28;20201;-84
2023/02/15 04:34:18;;;;;;;100.95;28.25;;;1.90;99.90;;;;;;5022119;28;20162;-84
2023/02/15 04:36:43;;;;;;;100.40;29.07;;;1.90;99.90;;;;;;5003205;28;20220;-84
2023/02/15 04:39:12;;;;;;;100.70;28.43;;;1.80;99.90;;;;;;5003860;28;20193;-84
2023/02/15 04:41:38;;;;;;;100.40;28.25;;;1.80;99.90;;;;;;5021307;28;20193;-83
2023/02/15 04:44:03;;;;;;;98.17;26.27;;;1.80;99.90;;;;;;5021227;28;20576;-84
2023/02/15 04:46:29;;;;;;;98.83;27.67;;;1.80;99.90;;;;;;5019780;28;20209;-84
2023/02/15 04:48:55;;;;;;;102.23;25.23;;;1.80;99.90;;;;;;5021092;28;20415;-84
2023/02/15 04:51:21;;;;;;;99.82;25.63;;;1.80;99.90;;;;;;5021149;28;20349;-84
2023/02/15 04:53:47;;;;;;;98.27;24.07;;;1.90;99.90;;;;;;5021012;28;20633;-84
2023/02/15 04:56:15;;;;;;;104.70;26.43;;;1.90;99.90;;;;;;5021195;28;20468;-84
2023/02/15 04:58:41;;;;;;;107.90;27.25;;;1.90;99.90;;;;;;5019288;28;20436;-84
2023/02/15 05:01:10;;;;;;;97.70;24.90;;;1.80;99.90;;;;;;5003850;28;20189;-84
2023/02/15 05:03:36;;;;;;;97.60;28.08;;;1.80;99.90;;;;;;5002874;28;20234;-84
2023/02/15 05:06:02;;;;;;;98.20;26.07;;;1.90;99.90;;;;;;5020537;28;20653;-84
2023/02/15 05:08:28;;;;;;;103.03;24.58;;;1.90;99.90;;;;;;5020700;28;20397;-84
2023/02/15 05:10:57;;;;;;;96.23;25.80;;;1.90;99.90;;;;;;5020134;28;20197;-84
2023/02/15 05:13:23;;;;;;;102.95;28.10;;;1.80;99.90;;;;;;5020723;28;20174;-84
2023/02/15 05:15:50;;;;;;;99.23;30.30;;;1.80;99.90;;;;;;5020172;28;20300;-84
2023/02/15 05:18:17;;;;;;;97.43;25.13;;;1.80;99.90;;;;;;5020157;28;20397;-84
2023/02/15 05:20:43;;;;;;;99.07;26.92;;;1.80;99.90;;;;;;5002509;28;20166;-84
2023/02/15 05:23:12;;;;;;;107.65;42.88;;;1.70;99.90;;;;;;5020214;28;20162;-84
2023/02/15 05:28:25;;;;;;;95.82;26.65;;;1.70;99.90;;;;;;5020508;28;20165;-84
2023/02/15 05:31:03;;;;;;;99.78;29.77;;;1.70;99.90;;;;;;5002321;28;20205;-84
2023/02/15 05:33:28;;;;;;;102.65;26.73;;;1.70;99.90;;;;;;5019861;28;20181;-84
2023/02/15 05:35:54;;;;;;;100.87;28.77;;;1.70;99.90;;;;;;5019843;28;20630;-84
2023/02/15 05:38:20;;;;;;;96.23;27.27;;;1.70;99.90;;;;;;5020160;28;20170;-84
2023/02/15 05:40:45;;;;;;;93.47;25.90;;;1.70;99.90;;;;;;5001583;28;20276;-84
2023/02/15 05:43:11;;;;;;;103.13;28.77;;;1.70;99.90;;;;;;5019879;28;20166;-84
2023/02/15 05:45:37;;;;;;;95.97;27.43;;;1.70;99.90;;;;;;5018427;28;20634;-84
2023/02/15 05:48:02;;;;;;;101.17;31.17;;;1.70;99.90;;;;;;5018876;28;20233;-84
2023/02/15 05:50:28;;;;;;;95.50;28.00;;;1.60;99.90;;;;;;5001585;28;20166;-84
2023/02/15 05:52:54;;;;;;;101.63;25.83;;;1.60;99.90;;;;;;5019344;28;20190;-84
2023/02/15 05:55:20;;;;;;;98.20;26.97;;;1.60;99.90;;;;;;5017765;28;20209;-84
2023/02/15 05:57:45;;;;;;;95.33;30.40;;;1.60;99.90;;;;;;5001487;28;20269;-84
2023/02/15 06:00:13;;;;;;;97.10;26.57;;;1.60;99.90;;;;;;5019713;28;20256;-84
2023/02/15 06:02:42;;;;;;;102.55;28.63;;;1.60;99.90;;;;;;5019405;28;20497;-84
2023/02/15 06:05:08;;;;;;;100.63;27.05;;;1.60;99.90;;;;;;5001432;28;20237;-84
2023/02/15 06:07:34;;;;;;;97.77;23.60;;;1.60;99.90;;;;;;5002158;28;20197;-84
2023/02/15 06:10:06;;;;;;;88.73;24.60;;;1.50;99.90;;;;;;5018659;28;20405;-84
2023/02/15 06:12:31;;;;;;;94.18;25.35;;;1.60;99.90;;;;;;5001209;28;20483;-84
2023/02/15 06:14:57;;;;;;;94.90;27.50;;;1.50;99.90;;;;;;5001195;28;20170;-84
2023/02/15 06:17:23;;;;;;;99.17;31.37;;;1.50;99.90;;;;;;5001766;28;20166;-84
2023/02/15 06:19:48;;;;;;;93.00;27.83;;;1.50;99.90;;;;;;5019293;28;20169;-84
2023/02/15 06:22:17;;;;;;;99.13;29.87;;;1.50;99.90;;;;;;5019303;28;20186;-84
2023/02/15 06:24:43;;;;;;;104.70;28.73;;;1.50;99.90;;;;;;5018807;28;20177;-84
2023/02/15 06:27:10;;;;;;;96.17;27.37;;;1.50;99.90;;;;;;5018991;28;20173;-84
2023/02/15 06:29:36;;;;;;;97.43;25.90;;;1.50;99.90;;;;;;5001234;28;20166;-83
2023/02/15 06:32:02;;;;;;;95.80;26.00;;;1.50;99.90;;;;;;5017332;28;20212;-83
2023/02/15 06:34:27;;;;;;;94.67;29.40;;;1.50;99.90;;;;;;5018898;28;20415;-83
2023/02/15 06:36:53;;;;;;;96.47;30.83;;;1.50;99.90;;;;;;5018024;28;20166;-83
2023/02/15 06:39:18;;;;;;;95.83;27.43;;;1.50;99.90;;;;;;5018893;28;20224;-83
2023/02/15 06:41:44;;;;;;;94.20;24.90;;;1.50;99.90;;;;;;5018964;28;20229;-83
2023/02/15 06:44:10;;;;;;;96.57;26.47;;;1.40;99.90;;;;;;5017833;28;20166;-83
2023/02/15 06:46:35;;;;;;;99.93;28.80;;;1.40;99.90;;;;;;5017368;28;20281;-83
2023/02/15 06:49:01;;;;;;;93.90;25.10;;;1.40;99.90;;;;;;5001066;28;20201;-83
2023/02/15 06:51:27;;;;;;;94.63;28.90;;;1.40;99.90;;;;;;5017310;28;20344;-84
2023/02/15 06:53:52;;;;;;;96.90;26.47;;;1.50;99.90;;;;;;5018477;28;20170;-83
2023/02/15 06:56:18;;;;;;;97.40;29.47;;;1.40;99.90;;;;;;5018917;28;20170;-83
2023/02/15 06:58:45;;;;;;;95.70;31.00;;;1.50;99.90;;;;;;5017013;28;20646;-83
2023/02/15 07:01:11;;;;;;;93.45;28.67;;;1.50;99.90;;;;;;5018710;28;20251;-84
2023/02/15 07:03:40;;;;;;;99.32;29.05;;;1.50;99.90;;;;;;5019885;28;20232;-83
2023/02/15 07:06:08;;;;;;;97.07;31.52;;;1.50;99.90;;;;;;5019042;28;20236;-83
2023/02/15 07:08:34;;;;;;;99.57;30.10;;;1.50;99.90;;;;;;5018732;28;20146;-83
2023/02/15 07:14:04;;;;;;;93.32;27.70;;;1.50;99.90;;;;;;4977618;28;20167;-83
2023/02/15 07:16:30;;;;;;;105.13;41.70;;;1.50;99.90;;;;;;4977365;28;20167;-83
2023/02/15 07:18:55;;;;;;;98.67;28.37;;;1.50;99.90;;;;;;4996295;28;20188;-83
2023/02/15 07:21:21;;;;;;;92.57;25.67;;;1.50;99.90;;;;;;5018681;28;20186;-84
2023/02/15 07:23:47;;;;;;;95.70;30.77;;;1.50;99.90;;;;;;5018667;28;20401;-84
2023/02/15 07:26:13;;;;;;;93.07;29.80;;;1.50;99.90;;;;;;5018633;28;20192;-84
2023/02/15 07:28:38;;;;;;;92.30;29.27;;;1.50;99.90;;;;;;5019085;28;20215;-84
2023/02/15 07:31:05;;;;;;;92.57;30.20;;;1.50;99.90;;;;;;5018975;28;20700;-84
2023/02/15 07:33:31;;;;;;;91.38;26.30;;;1.60;99.90;;;;;;5001020;28;20170;-84
2023/02/15 07:36:01;;;;;;;95.22;33.63;;;1.60;99.90;;;;;;5001415;28;20170;-83
2023/02/15 07:38:35;;;;;;;92.72;30.20;;;1.60;99.90;;;;;;5017556;28;20172;-84
2023/02/15 07:41:09;;;;;;;96.13;33.97;;;1.60;99.90;;;;;;5001007;28;20189;-84
2023/02/15 07:43:37;;;;;;;94.68;34.05;;;1.70;99.90;;;;;;5018329;28;20161;-83
2023/02/15 07:46:14;;;;;;;98.13;30.80;;;1.70;99.90;;;;;;5018643;28;20186;-83
2023/02/15 07:48:41;;;;;;;100.80;44.97;;;1.70;99.90;;;;;;5017909;28;20158;-83
2023/02/15 07:51:08;;;;;;;94.80;28.48;;;1.70;99.90;;;;;;5017963;28;20198;-83
2023/02/15 07:53:35;;;;;;;96.82;31.85;;;1.70;99.90;;;;;;5018105;28;20177;-83
2023/02/15 07:56:04;;;;;;;93.88;31.23;;;1.80;99.90;;;;;;5016200;28;20169;-83
2023/02/15 08:01:14;;;;;;;93.90;29.30;;;1.90;99.90;;;;;;5018191;28;20197;-83
2023/02/15 08:03:40;;;;;;;97.63;36.55;;;1.90;99.90;;;;;;5018097;28;20634;-84
2023/02/15 08:06:06;;;;;;;99.80;28.43;;;1.90;99.90;;;;;;5018406;28;20170;-84
2023/02/15 08:08:35;;;;;;;94.10;27.48;;;1.90;99.90;;;;;;5017975;28;20416;-84
2023/02/15 08:11:25;;;;;;;99.80;28.23;;;2.00;99.90;;;;;;5018263;28;20229;-84
2023/02/15 08:14:03;;;;;;;95.28;29.80;;;2.00;99.90;;;;;;5021955;28;20151;-83
2023/02/15 08:16:47;;;;;;;94.78;29.90;;;2.00;99.90;;;;;;5004468;28;20154;-83
2023/02/15 08:19:27;;;;;;;93.88;35.42;;;2.10;99.90;;;;;;5004447;28;20648;-84
2023/02/15 08:21:58;;;;;;;96.45;37.53;;;2.10;99.90;;;;;;5022044;28;20209;-84
2023/02/15 08:24:27;;;;;;;93.40;24.40;;;2.20;99.90;;;;;;5020084;28;20166;-83
2023/02/15 08:26:53;;;;;;;95.18;28.52;;;2.20;99.90;;;;;;5021066;28;20188;-84
2023/02/15 08:29:22;;;;;;;90.20;24.95;;;2.30;99.90;;;;;;5021992;28;20507;-84
2023/02/15 08:31:49;;;;;;;93.70;25.80;;;2.30;99.90;;;;;;5022143;28;20213;-84
2023/02/15 08:34:17;;;;;;;96.13;27.48;;;2.40;99.90;;;;;;5022014;28;20211;-84
2023/02/15 08:36:44;;;;;;;92.25;27.52;;;2.40;99.90;;;;;;5021699;28;20165;-84
2023/02/15 08:39:11;;;;;;;94.72;31.58;;;2.50;99.90;;;;;;5021594;28;20233;-84
2023/02/15 08:41:38;;;;;;;89.18;24.13;;;2.50;99.90;;;;;;5021374;28;20549;-83
2023/02/15 08:44:06;;;;;;;90.70;21.65;;;2.60;99.90;;;;;;5022369;28;20246;-84
2023/02/15 08:46:35;;;;;;;86.68;19.30;;;2.60;99.90;;;;;;5021612;28;20549;-84
2023/02/15 08:49:01;;;;;;;91.80;22.90;;;2.70;99.90;;;;;;5019686;28;20241;-84
2023/02/15 08:51:37;;;;;;;91.15;26.08;;;2.70;99.90;;;;;;5021173;28;20695;-84
2023/02/15 08:54:09;;;;;;;85.78;20.75;;;2.80;99.90;;;;;;5020589;28;20149;-84
2023/02/15 08:56:37;;;;;;;88.45;19.58;;;2.80;99.90;;;;;;5020463;28;20150;-84
2023/02/15 08:59:06;;;;;;;94.13;20.27;;;2.90;99.90;;;;;;5020987;28;20162;-84
2023/02/15 09:01:34;;;;;;;91.50;21.52;;;2.90;99.90;;;;;;5021083;28;20268;-85
2023/02/15 09:04:03;;;;;;;88.10;19.90;;;3.00;99.90;;;;;;5021711;28;20169;-84
2023/02/15 09:06:29;;;;;;;91.45;21.13;;;3.00;99.90;;;;;;5020874;28;20236;-84
2023/02/15 09:08:58;;;;;;;88.87;26.53;;;3.10;99.90;;;;;;5019767;28;20174;-84
2023/02/15 09:11:29;;;;;;;88.10;18.73;;;3.20;99.90;;;;;;5020962;28;20847;-84
2023/02/15 09:13:57;;;;;;;99.10;23.33;;;3.30;99.90;;;;;;5003937;28;20158;-84
2023/02/15 09:16:25;;;;;;;87.38;20.38;;;3.30;99.90;;;;;;5003270;28;20252;-84
2023/02/15 09:18:51;;;;;;;90.55;23.05;;;3.40;99.90;;;;;;5019173;28;20174;-84
2023/02/15 09:21:20;;;;;;;85.40;18.98;;;3.50;99.90;;;;;;5020155;28;20185;-84
2023/02/15 09:23:48;;;;;;;86.53;20.85;;;3.50;99.90;;;;;;5002485;28;20252;-84
2023/02/15 09:26:19;;;;;;;85.82;19.17;;;3.60;99.90;;;;;;5021316;28;20176;-84
2023/02/15 09:28:45;;;;;;;89.35;18.00;;;3.70;99.90;;;;;;5003398;28;20227;-84
2023/02/15 09:31:16;;;;;;;87.47;19.65;;;3.70;99.90;;;;;;5020921;28;20201;-84
2023/02/15 09:33:44;;;;;;;90.00;19.63;;;3.80;99.90;;;;;;5020955;28;20166;-84
2023/02/15 09:36:29;;;;;;;89.97;20.55;;;3.90;99.90;;;;;;5020372;28;20233;-84
2023/02/15 09:39:13;;;;;;;85.65;20.23;;;4.00;99.90;;;;;;5020714;28;20154;-84
2023/02/15 09:41:44;;;;;;;89.03;21.65;;;4.10;99.90;;;;;;5003241;28;20193;-85
2023/02/15 09:44:32;;;;;;;89.28;21.38;;;4.30;99.90;;;;;;5020193;28;20180;-85
2023/02/15 09:47:26;;;;;;;86.00;20.65;;;4.40;99.90;;;;;;5093378;22;20234;-85
2023/02/15 09:50:11;;;;;;;88.38;20.38;;;4.50;99.90;;;;;;5030385;28;20257;-85
2023/02/15 09:53:24;;;;;;;90.32;22.27;;;4.50;99.90;;;;;;5013588;28;20202;-85
2023/02/15 09:56:12;;;;;;;84.78;20.05;;;4.60;99.90;;;;;;4971764;28;20175;-85
2023/02/15 09:58:52;;;;;;;90.65;22.98;;;4.70;99.90;;;;;;4994600;28;20163;-85
2023/02/15 10:01:38;;;;;;;84.55;20.38;;;4.80;99.90;;;;;;5011207;28;20183;-84
2023/02/15 10:04:39;;;;;;;88.05;21.77;;;5.00;99.90;;;;;;4994426;28;20163;-84
2023/02/15 10:07:32;;;;;;;90.93;20.50;;;5.10;99.90;;;;;;4993164;28;20166;-84
2023/02/15 10:10:26;;;;;;;;;;;;;;;;;;;;;
2023/02/15 10:13:30;;;;;;;85.80;16.65;;;5.30;99.90;;;;;;5010116;28;20270;-84
2023/02/15 10:15:59;;;;;;;88.93;20.80;;;5.50;99.90;;;;;;4988684;28;20185;-84
2023/02/15 10:18:39;;;;;;;86.20;23.70;;;5.60;99.90;;;;;;4993431;28;20198;-84
2023/02/15 10:21:24;;;;;;;83.90;22.40;;;5.60;99.90;;;;;;4993490;28;20737;-84
2023/02/15 10:24:04;;;;;;;86.07;22.10;;;5.80;99.90;;;;;;4993253;28;20159;-84
2023/02/15 10:26:47;;;;;;;90.70;25.55;;;5.90;99.90;;;;;;4992463;28;20174;-84
2023/02/15 10:29:40;;;;;;;90.65;24.98;;;5.90;99.90;;;;;;4993035;28;20155;-84
2023/02/15 10:32:37;;;;;;;83.05;19.45;;;6.00;99.90;;;;;;4992046;28;20202;-84
2023/02/15 10:35:25;;;;;;;84.53;18.00;;;6.10;99.90;;;;;;4992934;28;20615;-84
2023/02/15 10:38:19;;;;;;;86.95;16.67;;;6.30;99.90;;;;;;5010272;28;20143;-84
2023/02/15 10:40:59;;;;;;;83.03;17.35;;;6.40;99.90;;;;;;5014476;28;20171;-83
2023/02/15 10:43:43;;;;;;;82.03;16.02;;;6.50;99.90;;;;;;4993208;28;20169;-83
2023/02/15 10:47:15;;;;;;;;;;;;;;;;;;;;;
2023/02/15 10:50:20;;;;;;;84.80;16.95;;;6.60;99.90;;;;;;4916745;28;20192;-83
2023/02/15 10:53:13;;;;;;;88.32;16.13;;;6.60;99.90;;;;;;4969610;28;20281;-85
2023/02/15 10:56:10;;;;;;;80.43;14.65;;;6.70;99.90;;;;;;5010064;28;20170;-83
2023/02/15 10:59:06;;;;;;;83.72;15.98;;;6.80;99.90;;;;;;5010669;28;20510;-83
2023/02/15 11:01:44;;;;;;;86.78;16.92;;;6.80;90.40;;;;;;4991476;28;20187;-81
2023/02/15 11:04:13;;;;;;;84.30;16.08;;;6.90;81.60;;;;;;5009563;28;20151;-81
2023/02/15 11:06:48;;;;;;;82.68;14.65;;;7.10;66.00;;;;;;5009757;28;20163;-81
2023/02/15 11:09:17;;;;;;;85.72;16.30;;;7.20;60.50;;;;;;5009397;28;20147;-81
2023/02/15 11:11:47;;;;;;;83.85;14.50;;;7.30;59.00;;;;;;4991587;28;20686;-81
2023/02/15 11:14:32;;;;;;;85.68;15.38;;;7.30;56.70;;;;;;4992194;28;20194;-81
2023/02/15 11:17:05;;;;;;;87.95;15.63;;;7.50;56.70;;;;;;5009261;28;20228;-81
2023/02/15 11:19:39;;;;;;;81.50;13.93;;;7.50;47.90;;;;;;4991493;28;20550;-81
2023/02/15 11:22:06;;;;;;;82.20;15.52;;;7.60;50.60;;;;;;4991511;28;20197;-81
2023/02/15 11:24:41;;;;;;;85.93;15.65;;;7.80;52.50;;;;;;5008008;28;20182;-81
2023/02/15 11:27:12;;;;;;;82.25;15.52;;;8.00;45.50;;;;;;4991376;28;20158;-81
2023/02/15 11:29:41;;;;;;;83.57;14.70;;;8.10;38.50;;;;;;4991707;28;20167;-81
2023/02/15 11:32:22;;;;;;;82.22;14.23;;;8.20;33.30;;;;;;5008581;28;20217;-81
2023/02/15 11:34:55;;;;;;;91.10;14.77;;;8.20;31.40;;;;;;4991824;28;20234;-81
2023/02/15 11:37:46;;;;;;;84.07;15.68;;;8.30;30.40;;;;;;4991912;28;20630;-81
2023/02/15 11:40:24;;;;;;;84.03;14.63;;;8.40;29.10;;;;;;5009187;28;20162;-81
2023/02/15 11:42:57;;;;;;;91.18;15.27;;;8.60;24.60;;;;;;4992172;28;20192;-81
2023/02/15 11:45:34;;;;;;;89.45;16.83;;;8.80;24.90;;;;;;5008069;28;20174;-81
2023/02/15 11:48:08;;;;;;;79.85;13.40;;;8.80;20.50;;;;;;4995278;28;20270;-81
2023/02/15 11:50:34;;;;;;;81.78;16.65;;;8.90;16.60;;;;;;4995868;28;20165;-81
2023/02/15 11:53:15;;;;;;;84.00;15.10;;;9.00;19.80;;;;;;5012414;28;20218;-81
2023/02/15 11:55:46;;;;;;;92.05;15.50;;;9.10;17.20;;;;;;4995847;28;20621;-81
2023/02/15 11:58:38;;;;;;;80.95;16.05;;;9.20;14.50;;;;;;5012847;28;20235;-81
2023/02/15 12:01:31;;;;;;;80.80;15.13;;;9.40;9.10;;;;;;5012511;28;20194;-81
2023/02/15 12:04:30;;;;;;;86.63;15.23;;;9.30;7.90;;;;;;5013497;28;20290;-81
2023/02/15 12:07:17;;;;;;;80.18;14.48;;;9.40;8.20;;;;;;4995744;28;20159;-81
2023/02/15 12:09:50;;;;;;;82.20;15.85;;;9.50;10.00;;;;;;5013209;28;20158;-81
2023/02/15 12:12:32;;;;;;;80.88;14.40;;;9.50;9.60;;;;;;5017558;28;20194;-80
2023/02/15 12:15:02;;;;;;;80.75;14.02;;;9.60;9.00;;;;;;5011564;28;20158;-81
2023/02/15 12:17:32;;;;;;;82.32;14.27;;;9.70;4.70;;;;;;4995050;28;20603;-82
2023/02/15 12:20:03;;;;;;;84.78;15.00;;;9.70;1.60;;;;;;5012462;28;20174;-82
2023/02/15 12:22:32;;;;;;;84.65;15.27;;;9.60;4.50;;;;;;4995147;28;20201;-82
2023/02/15 12:25:39;;;;;;;80.60;14.50;;;9.60;5.50;;;;;;4994649;28;20171;-82
2023/02/15 12:28:35;;;;;;;83.57;14.60;;;9.80;8.90;;;;;;4994989;28;20238;-82
2023/02/15 12:31:04;;;;;;;84.20;15.10;;;9.80;2.30;;;;;;5011290;28;20193;-81
2023/02/15 12:33:36;;;;;;;85.15;15.10;;;9.80;2.50;;;;;;5011951;28;20173;-81
2023/02/15 12:36:19;;;;;;;80.70;14.70;;;9.80;4.40;;;;;;4994608;28;20170;-81
2023/02/15 12:39:15;;;;;;;85.70;16.67;;;9.90;5.10;;;;;;4993881;28;20159;-81
2023/02/15 12:41:56;;;;;;;84.53;14.77;;;10.00;1.50;;;;;;4993902;28;20205;-81
2023/02/15 12:44:28;;;;;;;80.40;14.05;;;10.00;3.10;;;;;;5011193;28;20602;-81
2023/02/15 12:47:00;;;;;;;82.97;15.65;;;10.00;4.10;;;;;;5010448;28;20189;-82
2023/02/15 12:49:28;;;;;;;85.43;15.32;;;10.10;5.90;;;;;;4994231;28;20178;-81
2023/02/15 12:51:56;;;;;;;85.38;15.52;;;10.10;4.90;;;;;;5010801;28;20194;-81
2023/02/15 12:54:30;;;;;;;81.95;14.85;;;10.20;1.90;;;;;;4993316;28;20237;-81
2023/02/15 12:57:25;;;;;;;83.72;14.68;;;10.30;1.00;;;;;;4992286;28;20163;-81
2023/02/15 12:59:52;;;;;;;81.25;14.80;;;10.20;2.00;;;;;;5010846;28;20162;-84
2023/02/15 13:02:26;;;;;;;81.70;14.73;;;10.30;1.00;;;;;;4992016;28;20187;-81
2023/02/15 13:04:53;;;;;;;83.22;14.35;;;10.30;4.20;;;;;;4993623;28;20614;-81
2023/02/15 13:07:22;;;;;;;79.50;14.98;;;10.30;1.00;;;;;;5010402;28;20190;-81
2023/02/15 13:09:49;;;;;;;83.55;14.55;;;10.30;1.00;;;;;;4993383;28;20166;-81
2023/02/15 13:12:23;;;;;;;83.10;15.20;;;10.40;1.00;;;;;;5010866;28;20193;-81
2023/02/15 13:15:13;;;;;;;83.15;15.35;;;10.30;1.00;;;;;;5010538;28;20155;-81
2023/02/15 13:17:43;;;;;;;83.00;14.95;;;10.40;1.00;;;;;;5009867;28;20178;-81
2023/02/15 13:20:22;;;;;;;83.07;14.23;;;10.40;1.00;;;;;;4992135;28;20173;-81
2023/02/15 13:22:50;;;;;;;82.82;14.43;;;10.50;1.00;;;;;;4992885;28;20197;-81
2023/02/15 13:25:28;;;;;;;83.55;15.02;;;10.50;1.00;;;;;;5010562;28;20244;-81
2023/02/15 13:28:04;;;;;;;81.80;14.02;;;10.60;1.00;;;;;;4992943;28;20159;-81
2023/02/15 13:30:38;;;;;;;81.50;14.05;;;10.60;1.00;;;;;;4992841;28;20158;-81